sensor_id;sensor_type;location;lat;lon;timestamp;P1;durP1;ratioP1;P2;durP2;ratioP2
54787;SDS011;59598;48.112;16.280;2023-12-07T00:02:20;8.90;;;5.72;;
54787;SDS011;59598;48.112;16.280;2023-12-07T00:04:52;7.82;;;5.75;;
54787;SDS011;59598;48.112;16.280;2023-12-07T00:07:26;7.40;;;5.80;;
54787;SDS011;59598;48.112;16.280;2023-12-07T00:09:57;9.02;;;5.72;;
54787;SDS011;59598;48.112;16.280;2023-12-07T00:12:31;7.32;;;5.32;;
54787;SDS011;59598;48.112;16.280;2023-12-07T00:17:37;9.57;;;6.63;;
54787;SDS011;59598;48.112;16.280;2023-12-07T00:20:10;11.10;;;5.50;;
54787;SDS011;59598;48.112;16.280;2023-12-07T00:22:44;8.85;;;6.40;;
54787;SDS011;59598;48.112;16.280;2023-12-07T00:25:18;7.65;;;5.25;;
54787;SDS011;59598;48.112;16.280;2023-12-07T00:27:49;8.07;;;5.72;;
54787;SDS011;59598;48.112;16.280;2023-12-07T00:30:21;7.00;;;5.07;;
54787;SDS011;59598;48.112;16.280;2023-12-07T00:32:57;6.88;;;5.40;;
54787;SDS011;59598;48.112;16.280;2023-12-07T00:35:28;9.93;;;6.22;;
54787;SDS011;59598;48.112;16.280;2023-12-07T00:38:02;8.43;;;5.65;;
54787;SDS011;59598;48.112;16.280;2023-12-07T00:40:39;8.40;;;5.65;;
54787;SDS011;59598;48.112;16.280;2023-12-07T00:43:12;10.65;;;5.93;;
54787;SDS011;59598;48.112;16.280;2023-12-07T00:45:47;8.48;;;5.13;;
54787;SDS011;59598;48.112;16.280;2023-12-07T00:48:19;10.88;;;6.45;;
54787;SDS011;59598;48.112;16.280;2023-12-07T00:50:51;9.88;;;6.18;;
54787;SDS011;59598;48.112;16.280;2023-12-07T00:53:24;9.90;;;6.72;;
54787;SDS011;59598;48.112;16.280;2023-12-07T00:55:58;5.63;;;4.90;;
54787;SDS011;59598;48.112;16.280;2023-12-07T00:58:29;9.65;;;5.13;;
54787;SDS011;59598;48.112;16.280;2023-12-07T01:01:01;6.88;;;4.57;;
54787;SDS011;59598;48.112;16.280;2023-12-07T01:03:34;8.35;;;5.28;;
54787;SDS011;59598;48.112;16.280;2023-12-07T01:06:05;8.30;;;5.28;;
54787;SDS011;59598;48.112;16.280;2023-12-07T01:08:44;5.95;;;4.70;;
54787;SDS011;59598;48.112;16.280;2023-12-07T01:11:17;7.30;;;5.18;;
54787;SDS011;59598;48.112;16.280;2023-12-07T01:13:48;5.70;;;4.38;;
54787;SDS011;59598;48.112;16.280;2023-12-07T01:16:20;7.68;;;5.10;;
54787;SDS011;59598;48.112;16.280;2023-12-07T01:18:52;7.35;;;5.35;;
54787;SDS011;59598;48.112;16.280;2023-12-07T01:21:23;6.93;;;4.20;;
54787;SDS011;59598;48.112;16.280;2023-12-07T01:23:54;6.32;;;5.30;;
54787;SDS011;59598;48.112;16.280;2023-12-07T01:28:59;6.30;;;4.28;;
54787;SDS011;59598;48.112;16.280;2023-12-07T01:31:31;7.68;;;5.10;;
54787;SDS011;59598;48.112;16.280;2023-12-07T01:34:05;7.47;;;4.18;;
54787;SDS011;59598;48.112;16.280;2023-12-07T01:36:37;7.97;;;5.32;;
54787;SDS011;59598;48.112;16.280;2023-12-07T01:39:11;6.72;;;4.88;;
54787;SDS011;59598;48.112;16.280;2023-12-07T01:41:43;7.40;;;4.82;;
54787;SDS011;59598;48.112;16.280;2023-12-07T01:44:14;7.15;;;4.65;;
54787;SDS011;59598;48.112;16.280;2023-12-07T01:46:51;6.88;;;4.72;;
54787;SDS011;59598;48.112;16.280;2023-12-07T01:49:25;8.05;;;5.55;;
54787;SDS011;59598;48.112;16.280;2023-12-07T01:51:59;7.43;;;5.30;;
54787;SDS011;59598;48.112;16.280;2023-12-07T01:54:30;7.35;;;4.28;;
54787;SDS011;59598;48.112;16.280;2023-12-07T01:59:35;8.55;;;5.97;;
54787;SDS011;59598;48.112;16.280;2023-12-07T02:02:09;9.07;;;5.53;;
54787;SDS011;59598;48.112;16.280;2023-12-07T02:04:40;8.48;;;5.15;;
54787;SDS011;59598;48.112;16.280;2023-12-07T02:09:46;8.95;;;5.45;;
54787;SDS011;59598;48.112;16.280;2023-12-07T02:12:24;5.90;;;4.53;;
54787;SDS011;59598;48.112;16.280;2023-12-07T02:15:03;7.90;;;6.22;;
54787;SDS011;59598;48.112;16.280;2023-12-07T02:17:43;10.35;;;6.65;;
54787;SDS011;59598;48.112;16.280;2023-12-07T02:20:41;9.02;;;5.18;;
54787;SDS011;59598;48.112;16.280;2023-12-07T02:23:18;9.02;;;6.47;;
54787;SDS011;59598;48.112;16.280;2023-12-07T02:29:02;10.25;;;6.35;;
54787;SDS011;59598;48.112;16.280;2023-12-07T02:31:36;9.38;;;6.88;;
54787;SDS011;59598;48.112;16.280;2023-12-07T02:34:13;9.00;;;6.03;;
54787;SDS011;59598;48.112;16.280;2023-12-07T02:36:47;9.57;;;6.30;;
54787;SDS011;59598;48.112;16.280;2023-12-07T02:39:21;11.47;;;6.77;;
54787;SDS011;59598;48.112;16.280;2023-12-07T02:41:58;11.85;;;6.75;;
54787;SDS011;59598;48.112;16.280;2023-12-07T02:44:33;10.57;;;6.95;;
54787;SDS011;59598;48.112;16.280;2023-12-07T02:47:07;10.38;;;6.88;;
54787;SDS011;59598;48.112;16.280;2023-12-07T02:49:39;10.73;;;6.97;;
54787;SDS011;59598;48.112;16.280;2023-12-07T02:52:11;9.70;;;6.22;;
54787;SDS011;59598;48.112;16.280;2023-12-07T02:54:45;11.82;;;6.90;;
54787;SDS011;59598;48.112;16.280;2023-12-07T02:57:17;12.20;;;7.65;;
54787;SDS011;59598;48.112;16.280;2023-12-07T02:59:54;10.82;;;7.10;;
54787;SDS011;59598;48.112;16.280;2023-12-07T03:02:26;8.98;;;6.72;;
54787;SDS011;59598;48.112;16.280;2023-12-07T03:04:57;9.63;;;5.20;;
54787;SDS011;59598;48.112;16.280;2023-12-07T03:07:29;11.63;;;7.30;;
54787;SDS011;59598;48.112;16.280;2023-12-07T03:10:03;10.20;;;6.18;;
54787;SDS011;59598;48.112;16.280;2023-12-07T03:12:40;9.32;;;6.60;;
54787;SDS011;59598;48.112;16.280;2023-12-07T03:15:11;10.48;;;6.55;;
54787;SDS011;59598;48.112;16.280;2023-12-07T03:17:44;10.07;;;6.07;;
54787;SDS011;59598;48.112;16.280;2023-12-07T03:20:15;10.32;;;6.13;;
54787;SDS011;59598;48.112;16.280;2023-12-07T03:22:50;10.48;;;7.28;;
54787;SDS011;59598;48.112;16.280;2023-12-07T03:25:24;12.65;;;6.80;;
54787;SDS011;59598;48.112;16.280;2023-12-07T03:28:01;9.70;;;6.07;;
54787;SDS011;59598;48.112;16.280;2023-12-07T03:30:35;11.63;;;7.15;;
54787;SDS011;59598;48.112;16.280;2023-12-07T03:33:09;10.70;;;6.75;;
54787;SDS011;59598;48.112;16.280;2023-12-07T03:35:40;9.65;;;5.95;;
54787;SDS011;59598;48.112;16.280;2023-12-07T03:38:11;10.13;;;5.38;;
54787;SDS011;59598;48.112;16.280;2023-12-07T03:40:42;9.23;;;6.65;;
54787;SDS011;59598;48.112;16.280;2023-12-07T03:43:19;10.15;;;6.40;;
54787;SDS011;59598;48.112;16.280;2023-12-07T03:45:51;7.88;;;5.35;;
54787;SDS011;59598;48.112;16.280;2023-12-07T03:48:22;8.35;;;5.32;;
54787;SDS011;59598;48.112;16.280;2023-12-07T03:50:54;8.43;;;5.20;;
54787;SDS011;59598;48.112;16.280;2023-12-07T03:53:28;8.30;;;6.38;;
54787;SDS011;59598;48.112;16.280;2023-12-07T03:55:59;11.35;;;6.20;;
54787;SDS011;59598;48.112;16.280;2023-12-07T03:58:33;9.25;;;5.57;;
54787;SDS011;59598;48.112;16.280;2023-12-07T04:01:05;10.90;;;6.72;;
54787;SDS011;59598;48.112;16.280;2023-12-07T04:03:37;8.07;;;4.88;;
54787;SDS011;59598;48.112;16.280;2023-12-07T04:06:17;8.90;;;5.05;;
54787;SDS011;59598;48.112;16.280;2023-12-07T04:08:48;9.40;;;6.15;;
54787;SDS011;59598;48.112;16.280;2023-12-07T04:11:20;8.52;;;5.70;;
54787;SDS011;59598;48.112;16.280;2023-12-07T04:13:51;11.52;;;6.47;;
54787;SDS011;59598;48.112;16.280;2023-12-07T04:16:29;11.20;;;5.93;;
54787;SDS011;59598;48.112;16.280;2023-12-07T04:19:00;10.73;;;6.70;;
54787;SDS011;59598;48.112;16.280;2023-12-07T04:21:34;8.38;;;5.88;;
54787;SDS011;59598;48.112;16.280;2023-12-07T04:26:42;8.07;;;5.32;;
54787;SDS011;59598;48.112;16.280;2023-12-07T04:29:18;11.43;;;7.32;;
54787;SDS011;59598;48.112;16.280;2023-12-07T04:31:50;9.32;;;5.43;;
54787;SDS011;59598;48.112;16.280;2023-12-07T04:34:23;9.50;;;5.72;;
54787;SDS011;59598;48.112;16.280;2023-12-07T04:36:54;10.23;;;6.15;;
54787;SDS011;59598;48.112;16.280;2023-12-07T04:39:28;10.48;;;6.47;;
54787;SDS011;59598;48.112;16.280;2023-12-07T04:41:59;7.03;;;4.60;;
54787;SDS011;59598;48.112;16.280;2023-12-07T04:44:30;10.40;;;6.95;;
54787;SDS011;59598;48.112;16.280;2023-12-07T04:47:01;12.20;;;7.53;;
54787;SDS011;59598;48.112;16.280;2023-12-07T04:49:33;10.70;;;6.43;;
54787;SDS011;59598;48.112;16.280;2023-12-07T04:52:09;9.13;;;6.10;;
54787;SDS011;59598;48.112;16.280;2023-12-07T04:54:43;8.93;;;6.00;;
54787;SDS011;59598;48.112;16.280;2023-12-07T04:57:14;12.75;;;8.02;;
54787;SDS011;59598;48.112;16.280;2023-12-07T04:59:47;13.32;;;5.78;;
54787;SDS011;59598;48.112;16.280;2023-12-07T05:02:25;11.00;;;7.22;;
54787;SDS011;59598;48.112;16.280;2023-12-07T05:04:58;12.73;;;7.75;;
54787;SDS011;59598;48.112;16.280;2023-12-07T05:07:35;12.00;;;7.40;;
54787;SDS011;59598;48.112;16.280;2023-12-07T05:10:09;12.82;;;8.02;;
54787;SDS011;59598;48.112;16.280;2023-12-07T05:12:40;12.05;;;7.47;;
54787;SDS011;59598;48.112;16.280;2023-12-07T05:15:15;12.50;;;7.18;;
54787;SDS011;59598;48.112;16.280;2023-12-07T05:17:48;11.10;;;6.38;;
54787;SDS011;59598;48.112;16.280;2023-12-07T05:20:20;11.45;;;6.90;;
54787;SDS011;59598;48.112;16.280;2023-12-07T05:22:58;13.07;;;7.47;;
54787;SDS011;59598;48.112;16.280;2023-12-07T05:28:05;8.65;;;5.57;;
54787;SDS011;59598;48.112;16.280;2023-12-07T05:30:38;11.63;;;6.10;;
54787;SDS011;59598;48.112;16.280;2023-12-07T05:33:12;10.25;;;5.85;;
54787;SDS011;59598;48.112;16.280;2023-12-07T05:35:52;11.13;;;6.80;;
54787;SDS011;59598;48.112;16.280;2023-12-07T05:38:29;9.40;;;6.15;;
54787;SDS011;59598;48.112;16.280;2023-12-07T05:41:00;11.63;;;6.10;;
54787;SDS011;59598;48.112;16.280;2023-12-07T05:43:31;9.32;;;6.90;;
54787;SDS011;59598;48.112;16.280;2023-12-07T05:46:10;10.05;;;6.53;;
54787;SDS011;59598;48.112;16.280;2023-12-07T05:48:41;12.07;;;7.20;;
54787;SDS011;59598;48.112;16.280;2023-12-07T05:51:13;9.27;;;5.65;;
54787;SDS011;59598;48.112;16.280;2023-12-07T05:53:51;11.50;;;6.32;;
54787;SDS011;59598;48.112;16.280;2023-12-07T05:56:25;10.35;;;6.70;;
54787;SDS011;59598;48.112;16.280;2023-12-07T05:58:56;9.30;;;5.72;;
54787;SDS011;59598;48.112;16.280;2023-12-07T06:01:27;12.85;;;7.20;;
54787;SDS011;59598;48.112;16.280;2023-12-07T06:04:01;9.57;;;6.38;;
54787;SDS011;59598;48.112;16.280;2023-12-07T06:06:32;11.10;;;7.45;;
54787;SDS011;59598;48.112;16.280;2023-12-07T06:09:03;8.73;;;5.47;;
54787;SDS011;59598;48.112;16.280;2023-12-07T06:11:36;10.27;;;6.60;;
54787;SDS011;59598;48.112;16.280;2023-12-07T06:14:07;8.93;;;5.82;;
54787;SDS011;59598;48.112;16.280;2023-12-07T06:16:41;11.77;;;7.28;;
54787;SDS011;59598;48.112;16.280;2023-12-07T06:19:12;11.75;;;7.28;;
54787;SDS011;59598;48.112;16.280;2023-12-07T06:21:43;11.27;;;6.80;;
54787;SDS011;59598;48.112;16.280;2023-12-07T06:24:18;10.65;;;6.22;;
54787;SDS011;59598;48.112;16.280;2023-12-07T06:26:55;10.30;;;6.50;;
54787;SDS011;59598;48.112;16.280;2023-12-07T06:29:28;12.85;;;7.32;;
54787;SDS011;59598;48.112;16.280;2023-12-07T06:32:02;10.18;;;6.97;;
54787;SDS011;59598;48.112;16.280;2023-12-07T06:34:36;9.38;;;5.88;;
54787;SDS011;59598;48.112;16.280;2023-12-07T06:37:11;8.43;;;5.72;;
54787;SDS011;59598;48.112;16.280;2023-12-07T06:39:44;11.27;;;7.07;;
54787;SDS011;59598;48.112;16.280;2023-12-07T06:42:16;11.02;;;6.22;;
54787;SDS011;59598;48.112;16.280;2023-12-07T06:44:47;10.80;;;6.63;;
54787;SDS011;59598;48.112;16.280;2023-12-07T06:47:21;12.77;;;7.28;;
54787;SDS011;59598;48.112;16.280;2023-12-07T06:49:57;14.60;;;7.55;;
54787;SDS011;59598;48.112;16.280;2023-12-07T06:52:36;11.85;;;7.50;;
54787;SDS011;59598;48.112;16.280;2023-12-07T06:55:10;11.55;;;7.07;;
54787;SDS011;59598;48.112;16.280;2023-12-07T06:57:42;10.88;;;6.55;;
54787;SDS011;59598;48.112;16.280;2023-12-07T07:00:16;10.68;;;6.63;;
54787;SDS011;59598;48.112;16.280;2023-12-07T07:02:48;9.77;;;6.10;;
54787;SDS011;59598;48.112;16.280;2023-12-07T07:05:20;13.27;;;7.88;;
54787;SDS011;59598;48.112;16.280;2023-12-07T07:07:51;11.07;;;7.00;;
54787;SDS011;59598;48.112;16.280;2023-12-07T07:10:27;9.63;;;6.75;;
54787;SDS011;59598;48.112;16.280;2023-12-07T07:13:03;9.40;;;6.25;;
54787;SDS011;59598;48.112;16.280;2023-12-07T07:15:36;11.95;;;6.85;;
54787;SDS011;59598;48.112;16.280;2023-12-07T07:18:08;12.50;;;6.47;;
54787;SDS011;59598;48.112;16.280;2023-12-07T07:20:39;10.73;;;7.03;;
54787;SDS011;59598;48.112;16.280;2023-12-07T07:23:15;9.23;;;5.72;;
54787;SDS011;59598;48.112;16.280;2023-12-07T07:25:52;9.70;;;5.93;;
54787;SDS011;59598;48.112;16.280;2023-12-07T07:28:23;10.32;;;6.25;;
54787;SDS011;59598;48.112;16.280;2023-12-07T07:30:56;12.70;;;6.88;;
54787;SDS011;59598;48.112;16.280;2023-12-07T07:33:30;12.90;;;7.43;;
54787;SDS011;59598;48.112;16.280;2023-12-07T07:36:01;10.27;;;6.13;;
54787;SDS011;59598;48.112;16.280;2023-12-07T07:38:33;11.90;;;7.18;;
54787;SDS011;59598;48.112;16.280;2023-12-07T07:41:05;10.65;;;6.53;;
54787;SDS011;59598;48.112;16.280;2023-12-07T07:43:39;14.73;;;6.55;;
54787;SDS011;59598;48.112;16.280;2023-12-07T07:46:14;12.48;;;7.75;;
54787;SDS011;59598;48.112;16.280;2023-12-07T07:48:47;12.68;;;6.93;;
54787;SDS011;59598;48.112;16.280;2023-12-07T07:51:21;10.27;;;6.60;;
54787;SDS011;59598;48.112;16.280;2023-12-07T07:53:55;11.07;;;7.38;;
54787;SDS011;59598;48.112;16.280;2023-12-07T07:56:27;12.10;;;7.05;;
54787;SDS011;59598;48.112;16.280;2023-12-07T07:58:58;11.90;;;7.47;;
54787;SDS011;59598;48.112;16.280;2023-12-07T08:01:31;11.32;;;6.88;;
54787;SDS011;59598;48.112;16.280;2023-12-07T08:04:07;13.20;;;7.40;;
54787;SDS011;59598;48.112;16.280;2023-12-07T08:06:38;11.40;;;7.85;;
54787;SDS011;59598;48.112;16.280;2023-12-07T08:09:09;13.15;;;7.35;;
54787;SDS011;59598;48.112;16.280;2023-12-07T08:11:41;11.10;;;6.70;;
54787;SDS011;59598;48.112;16.280;2023-12-07T08:14:14;10.82;;;6.78;;
54787;SDS011;59598;48.112;16.280;2023-12-07T08:16:45;14.18;;;7.80;;
54787;SDS011;59598;48.112;16.280;2023-12-07T08:19:17;13.30;;;7.22;;
54787;SDS011;59598;48.112;16.280;2023-12-07T08:21:50;12.80;;;7.93;;
54787;SDS011;59598;48.112;16.280;2023-12-07T08:24:22;10.07;;;7.57;;
54787;SDS011;59598;48.112;16.280;2023-12-07T08:27:01;11.75;;;7.07;;
54787;SDS011;59598;48.112;16.280;2023-12-07T08:29:34;13.02;;;7.10;;
54787;SDS011;59598;48.112;16.280;2023-12-07T08:32:05;12.27;;;7.00;;
54787;SDS011;59598;48.112;16.280;2023-12-07T08:34:43;13.90;;;6.97;;
54787;SDS011;59598;48.112;16.280;2023-12-07T08:37:14;12.15;;;6.97;;
54787;SDS011;59598;48.112;16.280;2023-12-07T08:39:46;17.58;;;9.20;;
54787;SDS011;59598;48.112;16.280;2023-12-07T08:42:23;12.63;;;7.35;;
54787;SDS011;59598;48.112;16.280;2023-12-07T08:44:57;13.40;;;7.55;;
54787;SDS011;59598;48.112;16.280;2023-12-07T08:47:28;13.82;;;8.23;;
54787;SDS011;59598;48.112;16.280;2023-12-07T08:50:00;11.10;;;6.43;;
54787;SDS011;59598;48.112;16.280;2023-12-07T08:52:31;11.80;;;7.38;;
54787;SDS011;59598;48.112;16.280;2023-12-07T08:55:06;12.95;;;7.65;;
54787;SDS011;59598;48.112;16.280;2023-12-07T08:57:37;15.95;;;7.20;;
54787;SDS011;59598;48.112;16.280;2023-12-07T09:00:08;15.07;;;7.38;;
54787;SDS011;59598;48.112;16.280;2023-12-07T09:02:46;12.93;;;7.63;;
54787;SDS011;59598;48.112;16.280;2023-12-07T09:05:20;12.52;;;7.18;;
54787;SDS011;59598;48.112;16.280;2023-12-07T09:07:53;8.65;;;6.10;;
54787;SDS011;59598;48.112;16.280;2023-12-07T09:10:27;13.00;;;7.20;;
54787;SDS011;59598;48.112;16.280;2023-12-07T09:12:58;10.07;;;6.55;;
54787;SDS011;59598;48.112;16.280;2023-12-07T09:15:30;10.27;;;6.55;;
54787;SDS011;59598;48.112;16.280;2023-12-07T09:18:10;12.55;;;6.38;;
54787;SDS011;59598;48.112;16.280;2023-12-07T09:20:46;12.90;;;7.30;;
54787;SDS011;59598;48.112;16.280;2023-12-07T09:23:20;12.82;;;7.22;;
54787;SDS011;59598;48.112;16.280;2023-12-07T09:25:51;9.88;;;6.97;;
54787;SDS011;59598;48.112;16.280;2023-12-07T09:30:59;10.45;;;5.75;;
54787;SDS011;59598;48.112;16.280;2023-12-07T09:33:32;10.02;;;6.40;;
54787;SDS011;59598;48.112;16.280;2023-12-07T09:36:06;14.85;;;6.15;;
54787;SDS011;59598;48.112;16.280;2023-12-07T09:38:42;11.18;;;7.40;;
54787;SDS011;59598;48.112;16.280;2023-12-07T09:41:14;12.10;;;7.30;;
54787;SDS011;59598;48.112;16.280;2023-12-07T09:43:47;10.55;;;6.40;;
54787;SDS011;59598;48.112;16.280;2023-12-07T09:46:18;9.02;;;6.45;;
54787;SDS011;59598;48.112;16.280;2023-12-07T09:48:49;9.70;;;6.10;;
54787;SDS011;59598;48.112;16.280;2023-12-07T09:51:21;12.57;;;6.50;;
54787;SDS011;59598;48.112;16.280;2023-12-07T09:53:57;10.63;;;6.97;;
54787;SDS011;59598;48.112;16.280;2023-12-07T09:56:29;10.57;;;6.45;;
54787;SDS011;59598;48.112;16.280;2023-12-07T09:59:00;11.48;;;6.53;;
54787;SDS011;59598;48.112;16.280;2023-12-07T10:01:35;10.75;;;6.68;;
54787;SDS011;59598;48.112;16.280;2023-12-07T10:06:50;8.75;;;6.15;;
54787;SDS011;59598;48.112;16.280;2023-12-07T10:09:21;10.55;;;6.68;;
54787;SDS011;59598;48.112;16.280;2023-12-07T10:12:04;11.32;;;6.50;;
54787;SDS011;59598;48.112;16.280;2023-12-07T10:14:39;12.90;;;7.05;;
54787;SDS011;59598;48.112;16.280;2023-12-07T10:17:11;9.77;;;6.63;;
54787;SDS011;59598;48.112;16.280;2023-12-07T10:19:45;11.40;;;6.53;;
54787;SDS011;59598;48.112;16.280;2023-12-07T10:22:16;9.10;;;6.07;;
54787;SDS011;59598;48.112;16.280;2023-12-07T10:24:53;12.05;;;6.70;;
54787;SDS011;59598;48.112;16.280;2023-12-07T10:27:26;8.80;;;5.70;;
54787;SDS011;59598;48.112;16.280;2023-12-07T10:30:00;10.80;;;6.55;;
54787;SDS011;59598;48.112;16.280;2023-12-07T10:32:35;12.73;;;6.28;;
54787;SDS011;59598;48.112;16.280;2023-12-07T10:35:10;8.95;;;6.38;;
54787;SDS011;59598;48.112;16.280;2023-12-07T10:37:41;9.98;;;5.72;;
54787;SDS011;59598;48.112;16.280;2023-12-07T10:40:13;9.20;;;6.40;;
54787;SDS011;59598;48.112;16.280;2023-12-07T10:42:45;8.48;;;6.28;;
54787;SDS011;59598;48.112;16.280;2023-12-07T10:45:18;11.40;;;6.03;;
54787;SDS011;59598;48.112;16.280;2023-12-07T10:47:52;8.82;;;5.78;;
54787;SDS011;59598;48.112;16.280;2023-12-07T10:50:30;11.05;;;6.90;;
54787;SDS011;59598;48.112;16.280;2023-12-07T10:53:08;13.30;;;5.63;;
54787;SDS011;59598;48.112;16.280;2023-12-07T10:58:33;9.55;;;5.72;;
54787;SDS011;59598;48.112;16.280;2023-12-07T11:01:07;10.15;;;5.90;;
54787;SDS011;59598;48.112;16.280;2023-12-07T11:03:42;9.13;;;6.03;;
54787;SDS011;59598;48.112;16.280;2023-12-07T11:06:17;11.68;;;6.35;;
54787;SDS011;59598;48.112;16.280;2023-12-07T11:11:29;9.63;;;6.15;;
54787;SDS011;59598;48.112;16.280;2023-12-07T11:14:25;10.20;;;6.55;;
54787;SDS011;59598;48.112;16.280;2023-12-07T11:16:56;11.70;;;7.00;;
54787;SDS011;59598;48.112;16.280;2023-12-07T11:22:06;14.50;;;7.15;;
54787;SDS011;59598;48.112;16.280;2023-12-07T11:24:56;10.57;;;6.15;;
54787;SDS011;59598;48.112;16.280;2023-12-07T11:27:33;9.43;;;6.45;;
54787;SDS011;59598;48.112;16.280;2023-12-07T11:30:05;12.40;;;7.18;;
54787;SDS011;59598;48.112;16.280;2023-12-07T11:35:11;11.02;;;6.25;;
54787;SDS011;59598;48.112;16.280;2023-12-07T11:40:39;9.73;;;6.85;;
54787;SDS011;59598;48.112;16.280;2023-12-07T11:43:18;10.10;;;6.45;;
54787;SDS011;59598;48.112;16.280;2023-12-07T11:46:10;10.82;;;7.05;;
54787;SDS011;59598;48.112;16.280;2023-12-07T11:48:48;11.63;;;6.22;;
54787;SDS011;59598;48.112;16.280;2023-12-07T11:51:19;8.32;;;5.95;;
54787;SDS011;59598;48.112;16.280;2023-12-07T11:56:25;11.23;;;6.63;;
54787;SDS011;59598;48.112;16.280;2023-12-07T11:58:56;11.32;;;6.72;;
54787;SDS011;59598;48.112;16.280;2023-12-07T12:01:30;10.10;;;6.70;;
54787;SDS011;59598;48.112;16.280;2023-12-07T12:04:01;8.35;;;5.10;;
54787;SDS011;59598;48.112;16.280;2023-12-07T12:06:34;9.80;;;6.47;;
54787;SDS011;59598;48.112;16.280;2023-12-07T12:09:16;11.73;;;6.65;;
54787;SDS011;59598;48.112;16.280;2023-12-07T12:11:50;12.63;;;6.82;;
54787;SDS011;59598;48.112;16.280;2023-12-07T12:14:22;9.27;;;6.25;;
54787;SDS011;59598;48.112;16.280;2023-12-07T12:16:54;8.90;;;5.85;;
54787;SDS011;59598;48.112;16.280;2023-12-07T12:19:26;9.18;;;6.03;;
54787;SDS011;59598;48.112;16.280;2023-12-07T12:22:01;11.57;;;7.50;;
54787;SDS011;59598;48.112;16.280;2023-12-07T12:24:33;8.40;;;5.63;;
54787;SDS011;59598;48.112;16.280;2023-12-07T12:27:08;11.25;;;6.60;;
54787;SDS011;59598;48.112;16.280;2023-12-07T12:29:41;8.88;;;6.07;;
54787;SDS011;59598;48.112;16.280;2023-12-07T12:32:13;11.38;;;6.50;;
54787;SDS011;59598;48.112;16.280;2023-12-07T12:34:44;10.25;;;6.95;;
54787;SDS011;59598;48.112;16.280;2023-12-07T12:37:24;11.32;;;6.63;;
54787;SDS011;59598;48.112;16.280;2023-12-07T12:39:55;11.15;;;6.38;;
54787;SDS011;59598;48.112;16.280;2023-12-07T12:42:30;10.23;;;6.60;;
54787;SDS011;59598;48.112;16.280;2023-12-07T12:45:04;9.88;;;6.50;;
54787;SDS011;59598;48.112;16.280;2023-12-07T12:47:40;10.43;;;6.40;;
54787;SDS011;59598;48.112;16.280;2023-12-07T12:50:35;10.07;;;6.13;;
54787;SDS011;59598;48.112;16.280;2023-12-07T12:53:09;12.95;;;6.57;;
54787;SDS011;59598;48.112;16.280;2023-12-07T12:55:41;11.38;;;6.05;;
54787;SDS011;59598;48.112;16.280;2023-12-07T12:58:13;10.90;;;6.95;;
54787;SDS011;59598;48.112;16.280;2023-12-07T13:00:47;11.13;;;6.82;;
54787;SDS011;59598;48.112;16.280;2023-12-07T13:03:19;10.70;;;7.10;;
54787;SDS011;59598;48.112;16.280;2023-12-07T13:05:50;11.63;;;6.57;;
54787;SDS011;59598;48.112;16.280;2023-12-07T13:08:21;12.27;;;6.95;;
54787;SDS011;59598;48.112;16.280;2023-12-07T13:10:52;10.50;;;6.55;;
54787;SDS011;59598;48.112;16.280;2023-12-07T13:13:23;13.38;;;7.30;;
54787;SDS011;59598;48.112;16.280;2023-12-07T13:15:55;10.40;;;7.20;;
54787;SDS011;59598;48.112;16.280;2023-12-07T13:18:27;11.52;;;7.45;;
54787;SDS011;59598;48.112;16.280;2023-12-07T13:20:58;10.55;;;7.00;;
54787;SDS011;59598;48.112;16.280;2023-12-07T13:23:30;13.40;;;8.02;;
54787;SDS011;59598;48.112;16.280;2023-12-07T13:26:04;12.63;;;7.72;;
54787;SDS011;59598;48.112;16.280;2023-12-07T13:28:36;11.88;;;7.80;;
54787;SDS011;59598;48.112;16.280;2023-12-07T13:31:10;11.48;;;6.93;;
54787;SDS011;59598;48.112;16.280;2023-12-07T13:33:42;15.57;;;7.75;;
54787;SDS011;59598;48.112;16.280;2023-12-07T13:36:15;12.13;;;7.18;;
54787;SDS011;59598;48.112;16.280;2023-12-07T13:38:56;12.80;;;7.13;;
54787;SDS011;59598;48.112;16.280;2023-12-07T13:41:33;10.90;;;7.00;;
54787;SDS011;59598;48.112;16.280;2023-12-07T13:44:06;13.90;;;8.48;;
54787;SDS011;59598;48.112;16.280;2023-12-07T13:46:37;13.18;;;7.35;;
54787;SDS011;59598;48.112;16.280;2023-12-07T13:49:11;14.50;;;7.82;;
54787;SDS011;59598;48.112;16.280;2023-12-07T13:51:46;12.57;;;8.00;;
54787;SDS011;59598;48.112;16.280;2023-12-07T13:54:18;9.52;;;6.35;;
54787;SDS011;59598;48.112;16.280;2023-12-07T13:56:51;15.73;;;7.75;;
54787;SDS011;59598;48.112;16.280;2023-12-07T13:59:23;13.75;;;8.73;;
54787;SDS011;59598;48.112;16.280;2023-12-07T14:01:55;13.18;;;7.88;;
54787;SDS011;59598;48.112;16.280;2023-12-07T14:04:26;12.30;;;8.05;;
54787;SDS011;59598;48.112;16.280;2023-12-07T14:07:09;12.75;;;7.07;;
54787;SDS011;59598;48.112;16.280;2023-12-07T14:09:45;14.73;;;8.75;;
54787;SDS011;59598;48.112;16.280;2023-12-07T14:12:21;15.52;;;8.30;;
54787;SDS011;59598;48.112;16.280;2023-12-07T14:14:52;13.75;;;8.20;;
54787;SDS011;59598;48.112;16.280;2023-12-07T14:17:25;13.50;;;8.20;;
54787;SDS011;59598;48.112;16.280;2023-12-07T14:19:57;15.70;;;8.38;;
54787;SDS011;59598;48.112;16.280;2023-12-07T14:22:28;13.93;;;8.40;;
54787;SDS011;59598;48.112;16.280;2023-12-07T14:27:34;15.18;;;8.30;;
54787;SDS011;59598;48.112;16.280;2023-12-07T14:30:05;12.85;;;8.35;;
54787;SDS011;59598;48.112;16.280;2023-12-07T14:32:38;16.17;;;8.75;;
54787;SDS011;59598;48.112;16.280;2023-12-07T14:35:11;15.40;;;9.00;;
54787;SDS011;59598;48.112;16.280;2023-12-07T14:37:43;16.00;;;10.13;;
54787;SDS011;59598;48.112;16.280;2023-12-07T14:40:14;13.85;;;8.73;;
54787;SDS011;59598;48.112;16.280;2023-12-07T14:42:49;16.85;;;9.30;;
54787;SDS011;59598;48.112;16.280;2023-12-07T14:45:20;15.73;;;8.48;;
54787;SDS011;59598;48.112;16.280;2023-12-07T14:47:54;16.23;;;8.93;;
54787;SDS011;59598;48.112;16.280;2023-12-07T14:50:26;16.70;;;8.98;;
54787;SDS011;59598;48.112;16.280;2023-12-07T14:52:57;17.83;;;9.90;;
54787;SDS011;59598;48.112;16.280;2023-12-07T14:55:31;14.23;;;8.45;;
54787;SDS011;59598;48.112;16.280;2023-12-07T14:58:05;15.55;;;8.88;;
54787;SDS011;59598;48.112;16.280;2023-12-07T15:00:36;18.45;;;8.63;;
54787;SDS011;59598;48.112;16.280;2023-12-07T15:03:07;15.02;;;9.07;;
54787;SDS011;59598;48.112;16.280;2023-12-07T15:05:39;15.73;;;8.80;;
54787;SDS011;59598;48.112;16.280;2023-12-07T15:08:13;13.63;;;7.10;;
54787;SDS011;59598;48.112;16.280;2023-12-07T15:10:44;14.50;;;9.18;;
54787;SDS011;59598;48.112;16.280;2023-12-07T15:13:16;15.05;;;8.52;;
54787;SDS011;59598;48.112;16.280;2023-12-07T15:15:47;17.67;;;10.38;;
54787;SDS011;59598;48.112;16.280;2023-12-07T15:18:20;12.30;;;7.55;;
54787;SDS011;59598;48.112;16.280;2023-12-07T15:20:54;13.77;;;9.15;;
54787;SDS011;59598;48.112;16.280;2023-12-07T15:23:25;15.60;;;9.32;;
54787;SDS011;59598;48.112;16.280;2023-12-07T15:25:59;16.30;;;8.80;;
54787;SDS011;59598;48.112;16.280;2023-12-07T15:28:31;13.73;;;8.40;;
54787;SDS011;59598;48.112;16.280;2023-12-07T15:31:05;12.00;;;7.53;;
54787;SDS011;59598;48.112;16.280;2023-12-07T15:33:39;14.30;;;7.68;;
54787;SDS011;59598;48.112;16.280;2023-12-07T15:36:12;14.35;;;8.50;;
54787;SDS011;59598;48.112;16.280;2023-12-07T15:38:43;15.93;;;8.60;;
54787;SDS011;59598;48.112;16.280;2023-12-07T15:41:17;13.90;;;8.07;;
54787;SDS011;59598;48.112;16.280;2023-12-07T15:43:49;14.20;;;8.18;;
54787;SDS011;59598;48.112;16.280;2023-12-07T15:46:21;19.20;;;9.90;;